Time;durP1;ratioP1;P1;durP2;ratioP2;P2;SDS_P1;SDS_P2;PMS_P1;PMS_P2;Temp;Humidity;BMP_temperature;BMP_pressure;BME280_temperature;BME280_humidity;BME280_pressure;Samples;Min_cycle;Max_cycle;Signal;HPM_P1;HPM_P2
2022/06/23 00:01:43;;;;;;;16.25;8.70;;;20.80;99.90;;;;;;5089887;28;20055;-74
2022/06/23 00:04:16;;;;;;;14.57;7.68;;;20.70;99.90;;;;;;5088886;28;20035;-74
2022/06/23 00:06:48;;;;;;;15.07;8.48;;;20.50;99.90;;;;;;5090862;28;20032;-74
2022/06/23 00:09:40;;;;;;;16.77;8.15;;;20.40;99.90;;;;;;5090373;28;20028;-74
2022/06/23 00:12:26;;;;;;;18.90;8.88;;;20.40;99.90;;;;;;5091547;28;20028;-74
2022/06/23 00:15:13;;;;;;;18.98;9.25;;;20.30;99.90;;;;;;5094964;28;20047;-74
2022/06/23 00:17:44;;;;;;;18.23;8.27;;;20.30;99.90;;;;;;5100768;28;20115;-74
2022/06/23 00:20:20;;;;;;;16.10;9.88;;;20.10;99.90;;;;;;5092081;28;20028;-74
2022/06/23 00:22:52;;;;;;;16.50;9.93;;;20.10;99.90;;;;;;5089387;28;20051;-74
2022/06/23 00:25:34;;;;;;;16.25;9.10;;;20.10;99.90;;;;;;5092078;28;20082;-74
2022/06/23 00:28:01;;;;;;;17.58;8.63;;;20.10;99.90;;;;;;5090027;28;20079;-74
2022/06/23 00:30:37;;;;;;;21.13;8.45;;;20.00;99.90;;;;;;5090419;28;20028;-74
2022/06/23 00:33:14;;;;;;;21.60;9.13;;;20.00;99.90;;;;;;5092148;28;20505;-74
2022/06/23 00:35:40;;;;;;;16.05;8.75;;;20.00;99.90;;;;;;5089933;28;20039;-74
2022/06/23 00:38:27;;;;;;;14.68;7.63;;;19.90;99.90;;;;;;5088514;28;20028;-74
2022/06/23 00:40:55;;;;;;;18.48;8.43;;;19.80;99.90;;;;;;5090764;28;20051;-74
2022/06/23 00:43:21;;;;;;;17.63;9.07;;;19.80;99.90;;;;;;5088897;28;20036;-74
2022/06/23 00:46:19;;;;;;;13.65;8.73;;;19.80;99.90;;;;;;5090627;28;20032;-74
2022/06/23 00:48:53;;;;;;;16.17;8.52;;;19.90;99.90;;;;;;5089946;28;20102;-74
2022/06/23 00:51:43;;;;;;;12.18;8.55;;;19.60;99.90;;;;;;5091737;28;20032;-74
2022/06/23 00:54:21;;;;;;;14.80;8.10;;;19.50;99.90;;;;;;5089475;28;20020;-74
2022/06/23 00:56:58;;;;;;;21.35;11.27;;;19.50;99.90;;;;;;5089562;28;20055;-74
2022/06/23 00:59:48;;;;;;;19.00;9.02;;;19.50;99.90;;;;;;5087640;28;20024;-74
2022/06/23 01:02:32;;;;;;;13.52;8.07;;;19.50;99.90;;;;;;5089041;28;20604;-74
2022/06/23 01:05:07;;;;;;;18.65;9.45;;;19.70;99.90;;;;;;5089790;28;20478;-74
2022/06/23 01:07:53;;;;;;;14.82;8.82;;;19.70;99.90;;;;;;5090508;28;20060;-74
2022/06/23 01:10:31;;;;;;;18.40;9.98;;;19.70;99.90;;;;;;5089528;28;20036;-73
2022/06/23 01:13:03;;;;;;;21.00;9.50;;;19.80;99.90;;;;;;5090482;28;20028;-74
2022/06/23 01:15:34;;;;;;;18.65;9.00;;;19.80;99.90;;;;;;5087176;28;20016;-74
2022/06/23 01:18:18;;;;;;;14.50;9.10;;;19.60;99.90;;;;;;5090960;28;20436;-74
2022/06/23 01:20:58;;;;;;;14.32;8.20;;;19.60;99.90;;;;;;5089958;28;20042;-74
2022/06/23 01:23:38;;;;;;;13.57;8.50;;;19.50;99.90;;;;;;5090463;28;20043;-74
2022/06/23 01:26:16;;;;;;;22.20;9.02;;;19.50;99.90;;;;;;5090615;28;20024;-74
2022/06/23 01:28:42;;;;;;;17.33;8.50;;;19.50;99.90;;;;;;5089013;28;20051;-74
2022/06/23 01:31:38;;;;;;;17.05;9.20;;;19.40;99.90;;;;;;5089375;28;20040;-74
2022/06/23 01:34:24;;;;;;;17.75;9.35;;;19.50;99.90;;;;;;5091191;28;20079;-74
2022/06/23 01:36:55;;;;;;;15.23;9.23;;;19.50;99.90;;;;;;5089727;28;20085;-74
2022/06/23 01:39:27;;;;;;;17.23;8.45;;;19.40;99.90;;;;;;5090491;28;20359;-74
2022/06/23 01:42:02;;;;;;;15.77;8.75;;;19.40;99.90;;;;;;5092722;28;20024;-74
2022/06/23 01:44:53;;;;;;;14.63;8.38;;;19.40;99.90;;;;;;5094584;28;20032;-74
2022/06/23 01:47:37;;;;;;;12.13;8.50;;;19.50;99.90;;;;;;5094029;28;20028;-74
2022/06/23 01:50:28;;;;;;;17.75;9.32;;;19.70;99.90;;;;;;5093901;28;20024;-74
2022/06/23 01:53:18;;;;;;;19.15;9.85;;;19.60;99.90;;;;;;5093515;28;20497;-74
2022/06/23 01:55:54;;;;;;;14.40;7.78;;;19.60;99.90;;;;;;5095275;28;20028;-74
2022/06/23 01:58:22;;;;;;;14.85;9.18;;;19.50;99.90;;;;;;5091488;28;20039;-74
2022/06/23 02:00:53;;;;;;;15.95;8.57;;;19.60;99.90;;;;;;5091491;28;20032;-74
2022/06/23 02:03:40;;;;;;;20.42;10.20;;;19.50;99.90;;;;;;5093749;28;20524;-74
2022/06/23 02:06:29;;;;;;;17.48;8.43;;;19.50;99.90;;;;;;5093018;28;20024;-74
2022/06/23 02:09:32;;;;;;;13.13;8.20;;;19.50;99.90;;;;;;5092946;28;20032;-74
2022/06/23 02:11:58;;;;;;;17.90;9.02;;;19.40;99.90;;;;;;5040977;28;20038;-74
2022/06/23 02:14:51;;;;;;;13.68;7.70;;;19.40;99.90;;;;;;5093969;28;20114;-74
2022/06/23 02:17:17;;;;;;;15.07;9.38;;;19.50;99.90;;;;;;5093389;28;20032;-75
2022/06/23 02:20:00;;;;;;;16.52;9.98;;;19.60;99.90;;;;;;5094416;28;20024;-73
2022/06/23 02:22:38;;;;;;;18.65;8.13;;;19.60;99.90;;;;;;5092811;28;20076;-74
2022/06/23 02:25:10;;;;;;;18.40;8.63;;;19.70;99.90;;;;;;5091649;28;20035;-74
2022/06/23 02:27:49;;;;;;;20.20;9.05;;;19.70;99.90;;;;;;5091899;28;20047;-74
2022/06/23 02:30:39;;;;;;;20.92;9.55;;;19.70;99.90;;;;;;5094606;28;20036;-74
2022/06/23 02:33:27;;;;;;;23.67;10.38;;;19.70;99.90;;;;;;5088776;28;20043;-74
2022/06/23 02:36:24;;;;;;;21.90;10.27;;;19.90;99.90;;;;;;5094099;28;20028;-74
2022/06/23 02:39:03;;;;;;;12.95;8.63;;;20.10;99.90;;;;;;5087570;28;20052;-74
2022/06/23 02:41:35;;;;;;;17.98;8.63;;;20.20;99.90;;;;;;5094242;28;20024;-74
2022/06/23 02:44:19;;;;;;;19.00;10.10;;;20.20;99.90;;;;;;5106358;28;20035;-74
2022/06/23 02:47:15;;;;;;;18.45;8.70;;;20.20;99.90;;;;;;5102543;28;20028;-74
2022/06/23 02:50:06;;;;;;;20.17;9.25;;;20.10;99.90;;;;;;5092177;28;20030;-74
2022/06/23 02:52:53;;;;;;;14.82;9.50;;;20.00;99.90;;;;;;5088572;28;20031;-74
2022/06/23 02:55:30;;;;;;;16.30;9.30;;;20.00;99.90;;;;;;5086920;28;20028;-74
2022/06/23 02:57:58;;;;;;;20.02;9.10;;;19.90;99.90;;;;;;5087429;28;20028;-74
2022/06/23 03:00:32;;;;;;;13.02;8.70;;;19.90;99.90;;;;;;5087495;28;20107;-72
2022/06/23 03:03:21;;;;;;;20.40;9.00;;;19.90;99.90;;;;;;5088802;28;20078;-73
2022/06/23 03:05:52;;;;;;;18.27;8.93;;;19.80;99.90;;;;;;5022496;28;20425;-73
2022/06/23 03:08:46;;;;;;;18.90;9.00;;;20.00;99.90;;;;;;5086699;28;20028;-73
2022/06/23 03:11:54;;;;;;;19.20;9.77;;;20.00;99.90;;;;;;5087432;28;20032;-73
2022/06/23 03:14:56;;;;;;;15.60;9.65;;;19.90;99.90;;;;;;5088939;28;20059;-73
2022/06/23 03:17:36;;;;;;;15.52;8.30;;;19.80;99.90;;;;;;5080413;28;20077;-73
2022/06/23 03:20:18;;;;;;;17.65;9.73;;;19.70;99.90;;;;;;5084321;28;20028;-73
2022/06/23 03:22:49;;;;;;;18.95;9.38;;;19.70;99.90;;;;;;5085265;28;20044;-73
2022/06/23 03:25:23;;;;;;;14.50;8.43;;;19.80;99.90;;;;;;5087120;28;20110;-73
2022/06/23 03:27:51;;;;;;;;;;;19.80;99.90;;;;;;5087522;28;20093;-74
2022/06/23 03:30:41;;;;;;;16.25;9.13;;;19.80;99.90;;;;;;5089278;28;20207;-73
2022/06/23 03:33:12;;;;;;;15.93;8.63;;;19.70;99.90;;;;;;5085908;28;20517;-73
2022/06/23 03:35:42;;;;;;;17.15;8.82;;;19.80;99.90;;;;;;5087731;28;20032;-73
2022/06/23 03:41:36;;;;;;;12.05;7.50;;;19.60;99.90;;;;;;5084174;28;20021;-73
2022/06/23 03:44:20;;;;;;;17.10;9.00;;;19.70;99.90;;;;;;5088413;28;19923;-73
2022/06/23 03:46:49;;;;;;;16.42;8.35;;;19.80;99.90;;;;;;5086783;28;20032;-73
2022/06/23 03:49:35;;;;;;;15.25;9.57;;;19.60;99.90;;;;;;5087765;28;20093;-73
2022/06/23 03:52:04;;;;;;;16.30;8.63;;;19.50;99.90;;;;;;5087632;28;20043;-73
2022/06/23 03:54:44;;;;;;;13.65;9.75;;;19.50;99.90;;;;;;5086842;28;20505;-73
2022/06/23 03:57:35;;;;;;;15.30;8.18;;;19.50;99.90;;;;;;5085867;28;20508;-73
2022/06/23 04:00:13;;;;;;;18.95;9.75;;;19.40;99.90;;;;;;5085017;28;20036;-74
2022/06/23 04:02:44;;;;;;;18.13;8.95;;;19.50;99.90;;;;;;5083237;28;20379;-73
2022/06/23 04:05:10;;;;;;;19.58;10.00;;;19.70;99.90;;;;;;5085578;28;20036;-74
2022/06/23 04:08:00;;;;;;;16.17;9.00;;;19.70;99.90;;;;;;5083239;28;20097;-73
2022/06/23 04:10:39;;;;;;;15.52;8.93;;;19.80;99.90;;;;;;5085332;28;20103;-74
2022/06/23 04:13:18;;;;;;;12.95;8.20;;;19.70;99.90;;;;;;5084214;28;20024;-73
2022/06/23 04:15:44;;;;;;;19.08;8.80;;;19.70;99.90;;;;;;5082476;28;20024;-73
2022/06/23 04:18:17;;;;;;;14.43;9.52;;;19.70;99.90;;;;;;5083725;28;20040;-73
2022/06/23 04:20:53;;;;;;;15.75;8.43;;;19.70;99.90;;;;;;5083180;28;20111;-73
2022/06/23 04:23:32;;;;;;;14.40;8.65;;;19.50;99.90;;;;;;5082280;28;20028;-73
2022/06/23 04:26:05;;;;;;;15.00;9.77;;;19.50;99.90;;;;;;5082763;28;20115;-73
2022/06/23 04:28:40;;;;;;;18.90;10.38;;;19.50;99.90;;;;;;5084867;28;20040;-73
2022/06/23 04:31:07;;;;;;;19.73;10.70;;;19.70;99.90;;;;;;5063989;28;20432;-73
2022/06/23 04:33:40;;;;;;;17.67;8.95;;;19.70;99.90;;;;;;5084992;28;20039;-73
2022/06/23 04:36:19;;;;;;;19.23;9.67;;;19.80;99.90;;;;;;5080355;28;20031;-73
2022/06/23 04:38:57;;;;;;;16.73;9.45;;;19.80;99.90;;;;;;5080959;28;20293;-73
2022/06/23 04:41:28;;;;;;;18.88;9.48;;;19.80;99.90;;;;;;5074817;28;20161;-74
2022/06/23 04:44:02;;;;;;;14.48;9.15;;;19.70;99.90;;;;;;5084490;28;20450;-73
2022/06/23 04:46:30;;;;;;;;;;;19.60;99.90;;;;;;5084309;28;20485;-73
2022/06/23 04:49:22;;;;;;;14.63;9.00;;;19.50;99.90;;;;;;5082665;28;19912;-73
2022/06/23 04:51:52;;;;;;;20.45;9.38;;;19.50;99.90;;;;;;5082323;28;20470;-73
2022/06/23 04:54:45;;;;;;;18.65;8.63;;;19.50;99.90;;;;;;5084267;28;20051;-73
2022/06/23 04:57:13;;;;;;;13.98;8.45;;;19.60;99.90;;;;;;5082665;28;20028;-73
2022/06/23 04:59:51;;;;;;;17.55;8.90;;;19.60;99.90;;;;;;5083723;28;20032;-73
2022/06/23 05:02:35;;;;;;;14.45;8.05;;;19.70;99.90;;;;;;5082269;28;20112;-73
2022/06/23 05:05:18;;;;;;;16.60;9.10;;;19.70;99.90;;;;;;5083081;28;20063;-74
2022/06/23 05:07:53;;;;;;;18.20;9.30;;;19.70;99.90;;;;;;5080754;28;20061;-73
2022/06/23 05:10:32;;;;;;;23.17;9.18;;;19.80;99.90;;;;;;5083861;28;20089;-73
2022/06/23 05:13:05;;;;;;;17.42;9.27;;;19.80;99.90;;;;;;5086181;28;20074;-73
2022/06/23 05:15:42;;;;;;;18.38;9.68;;;19.90;99.90;;;;;;5085653;28;20036;-73
2022/06/23 05:18:15;;;;;;;16.35;9.52;;;19.90;99.90;;;;;;5083764;28;20028;-74
2022/06/23 05:20:55;;;;;;;16.23;9.10;;;19.80;99.90;;;;;;5080878;28;20028;-74
2022/06/23 05:23:35;;;;;;;17.25;9.23;;;20.00;99.90;;;;;;5087800;28;20401;-74
2022/06/23 05:26:08;;;;;;;13.50;7.90;;;20.00;99.90;;;;;;5083228;28;20691;-74
2022/06/23 05:28:38;;;;;;;16.52;8.95;;;19.90;99.90;;;;;;5084120;28;20032;-74
2022/06/23 05:31:09;;;;;;;12.45;7.97;;;19.90;99.90;;;;;;5080177;28;20032;-73
2022/06/23 05:33:41;;;;;;;16.40;7.60;;;20.00;99.90;;;;;;5080139;28;20374;-72
2022/06/23 05:36:20;;;;;;;21.80;9.52;;;20.00;99.90;;;;;;5082932;28;20475;-74
2022/06/23 05:39:11;;;;;;;17.20;8.30;;;20.20;99.90;;;;;;5085023;28;20399;-75
2022/06/23 05:41:44;;;;;;;14.32;9.55;;;20.20;99.90;;;;;;5086170;28;20036;-75
2022/06/23 05:44:47;;;;;;;15.88;8.98;;;20.10;99.90;;;;;;5082655;28;20048;-74
2022/06/23 05:47:15;;;;;;;14.88;8.35;;;20.20;99.90;;;;;;5084278;28;20036;-75
2022/06/23 05:49:44;;;;;;;15.63;8.27;;;20.20;99.90;;;;;;5083435;28;20370;-75
2022/06/23 05:52:18;;;;;;;16.30;7.93;;;20.20;99.90;;;;;;5083955;28;20477;-75
2022/06/23 05:54:54;;;;;;;13.25;7.28;;;20.10;99.90;;;;;;5083554;28;20643;-75
2022/06/23 05:57:34;;;;;;;13.95;7.30;;;20.30;99.90;;;;;;5082949;28;20032;-75
2022/06/23 06:00:18;;;;;;;13.45;7.13;;;20.50;99.90;;;;;;5081239;28;20111;-75
2022/06/23 06:02:47;;;;;;;12.85;6.65;;;20.60;99.90;;;;;;5082038;28;20166;-74
2022/06/23 06:05:27;;;;;;;15.63;6.95;;;20.70;99.90;;;;;;5083669;28;20032;-74
2022/06/23 06:07:53;;;;;;;11.82;6.50;;;20.70;99.90;;;;;;5075322;28;20040;-73
2022/06/23 06:10:22;;;;;;;19.98;7.20;;;20.70;99.90;;;;;;5083489;28;20081;-73
2022/06/23 06:12:50;;;;;;;13.48;6.30;;;20.80;99.90;;;;;;5082455;28;20040;-74
2022/06/23 06:15:24;;;;;;;14.90;6.70;;;20.80;99.90;;;;;;5083166;28;20077;-74
2022/06/23 06:17:52;;;;;;;;;;;20.90;99.90;;;;;;5077145;28;20469;-74
2022/06/23 06:20:24;;;;;;;10.50;6.20;;;20.90;99.90;;;;;;5084234;28;20404;-74
2022/06/23 06:22:57;;;;;;;11.30;6.72;;;21.00;99.90;;;;;;5084635;28;20040;-74
2022/06/23 06:25:35;;;;;;;11.30;6.25;;;21.10;99.90;;;;;;5082308;28;20032;-73
2022/06/23 06:28:16;;;;;;;16.63;7.57;;;21.10;99.90;;;;;;5064272;28;20063;-74
2022/06/23 06:30:49;;;;;;;16.20;7.13;;;21.10;99.90;;;;;;5083811;28;20032;-74
2022/06/23 06:33:32;;;;;;;15.05;7.53;;;21.30;99.90;;;;;;5086558;28;20056;-74
2022/06/23 06:35:58;;;;;;;14.57;6.32;;;21.40;99.90;;;;;;5086491;28;20160;-74
2022/06/23 06:38:26;;;;;;;11.43;6.60;;;21.40;99.90;;;;;;5086533;28;20111;-74
2022/06/23 06:40:56;;;;;;;14.88;7.18;;;21.50;99.90;;;;;;5068183;28;20583;-74
2022/06/23 06:43:31;;;;;;;14.30;6.47;;;21.60;99.90;;;;;;5084344;28;20034;-74
2022/06/23 06:45:58;;;;;;;13.68;6.47;;;21.60;99.90;;;;;;5085884;28;20028;-74
2022/06/23 06:48:36;;;;;;;15.65;6.85;;;21.70;99.90;;;;;;5086966;28;20032;-76
2022/06/23 06:51:08;;;;;;;15.20;6.75;;;21.70;99.90;;;;;;5087614;28;20036;-76
2022/06/23 06:53:48;;;;;;;15.60;6.47;;;21.70;99.90;;;;;;5088392;28;20028;-76
2022/06/23 06:56:44;;;;;;;13.48;5.97;;;21.70;99.90;;;;;;5087718;28;20028;-77
2022/06/23 06:59:15;;;;;;;15.32;6.45;;;21.80;99.90;;;;;;5086897;28;20927;-77
2022/06/23 07:01:46;;;;;;;12.40;6.68;;;21.90;99.90;;;;;;5089081;28;20036;-77
2022/06/23 07:04:20;;;;;;;14.07;6.90;;;22.10;99.90;;;;;;5085669;28;20067;-77
2022/06/23 07:06:56;;;;;;;16.17;5.90;;;22.20;99.90;;;;;;5084519;28;20120;-77
2022/06/23 07:09:25;;;;;;;12.90;6.22;;;22.50;99.90;;;;;;5085275;28;20028;-77
2022/06/23 07:12:00;;;;;;;20.15;7.40;;;22.80;99.90;;;;;;5082138;28;20028;-77
2022/06/23 07:15:01;;;;;;;11.00;7.28;;;22.90;99.90;;;;;;5085506;28;20027;-77
2022/06/23 07:17:34;;;;;;;10.00;6.75;;;23.30;99.90;;;;;;5085051;28;20110;-77
2022/06/23 07:20:26;;;;;;;9.57;6.30;;;23.50;99.90;;;;;;5084139;28;20062;-77
2022/06/23 07:23:01;;;;;;;14.02;6.28;;;23.70;99.90;;;;;;5083727;28;20091;-77
2022/06/23 07:25:32;;;;;;;15.05;6.00;;;24.10;99.90;;;;;;5086300;28;20035;-77
2022/06/23 07:28:06;;;;;;;12.43;5.85;;;24.40;99.90;;;;;;5085749;28;20086;-78
2022/06/23 07:30:40;;;;;;;;;;;24.50;99.90;;;;;;5086224;28;20032;-77
2022/06/23 07:33:11;;;;;;;9.73;5.50;;;24.90;99.90;;;;;;5086374;28;20014;-77
2022/06/23 07:35:43;;;;;;;12.88;5.35;;;25.60;98.70;;;;;;5083580;28;20380;-77
2022/06/23 07:38:12;;;;;;;14.73;5.80;;;26.30;97.80;;;;;;5082115;28;20043;-78
2022/06/23 07:41:07;;;;;;;8.63;5.45;;;26.60;96.60;;;;;;5084087;28;20031;-78
2022/06/23 07:43:44;;;;;;;9.57;5.78;;;26.60;96.00;;;;;;5100434;28;20099;-77
2022/06/23 07:46:10;;;;;;;15.80;5.72;;;26.90;95.60;;;;;;5093774;28;20119;-79
2022/06/23 07:48:37;;;;;;;12.13;5.60;;;27.10;95.40;;;;;;5085293;28;20099;-80
2022/06/23 07:51:10;;;;;;;10.50;4.55;;;26.80;95.40;;;;;;5085947;28;20028;-78
2022/06/23 07:53:47;;;;;;;14.10;5.82;;;26.70;95.90;;;;;;5087294;28;20522;-77
2022/06/23 07:56:26;;;;;;;9.75;4.97;;;26.80;96.10;;;;;;5087774;28;20028;-77
2022/06/23 07:59:02;;;;;;;11.07;5.70;;;26.80;95.90;;;;;;5086156;28;20028;-76
2022/06/23 08:01:32;;;;;;;11.38;5.28;;;26.40;96.00;;;;;;5084263;28;20044;-77
2022/06/23 08:04:25;;;;;;;11.98;5.47;;;26.90;95.80;;;;;;5086869;28;20040;-77
2022/06/23 08:06:51;;;;;;;13.85;6.32;;;26.60;95.20;;;;;;5080336;28;20036;-77
2022/06/23 08:09:19;;;;;;;14.68;6.00;;;26.50;96.60;;;;;;5087128;28;20046;-77
2022/06/23 08:14:34;;;;;;;16.05;6.20;;;26.30;95.40;;;;;;5084438;28;20043;-77
2022/06/23 08:17:04;;;;;;;10.15;5.63;;;26.20;96.00;;;;;;5087376;28;20082;-77
2022/06/23 08:19:42;;;;;;;11.18;5.43;;;26.60;96.10;;;;;;5081377;28;20111;-77
2022/06/23 08:22:15;;;;;;;13.95;6.93;;;27.00;95.20;;;;;;5080359;28;20493;-77
2022/06/23 08:24:43;;;;;;;;;;;26.50;94.80;;;;;;5070149;28;20047;-78
2022/06/23 08:27:18;;;;;;;10.40;5.95;;;26.30;95.60;;;;;;5085206;28;19908;-77
2022/06/23 08:30:07;;;;;;;14.07;6.60;;;26.80;95.40;;;;;;5087792;28;20036;-77
2022/06/23 08:32:37;;;;;;;13.40;6.53;;;26.80;95.10;;;;;;5085261;28;20024;-78
2022/06/23 08:35:26;;;;;;;11.40;6.15;;;27.10;95.20;;;;;;5087297;28;20024;-77
2022/06/23 08:38:06;;;;;;;12.27;6.07;;;27.20;95.50;;;;;;5087818;28;20441;-77
2022/06/23 08:40:55;;;;;;;14.60;6.30;;;27.10;95.70;;;;;;5087799;28;20036;-76
2022/06/23 08:44:04;;;;;;;14.23;7.00;;;27.10;95.40;;;;;;5088244;28;20043;-77
2022/06/23 08:46:51;;;;;;;10.40;6.60;;;27.30;94.60;;;;;;5087529;28;20115;-77
2022/06/23 08:49:36;;;;;;;11.38;6.80;;;26.60;95.10;;;;;;5086350;28;20108;-78
2022/06/23 08:52:26;;;;;;;11.23;5.80;;;26.80;95.40;;;;;;5081586;28;20028;-77
2022/06/23 08:55:23;;;;;;;10.95;5.97;;;27.10;94.90;;;;;;5069585;28;20436;-78
2022/06/23 08:58:07;;;;;;;15.02;6.53;;;26.80;94.90;;;;;;5087242;28;20040;-77
2022/06/23 09:00:36;;;;;;;15.75;6.43;;;27.10;94.80;;;;;;5087435;28;20547;-77
2022/06/23 09:03:09;;;;;;;10.07;6.15;;;27.30;94.80;;;;;;5087590;28;20088;-78
2022/06/23 09:06:04;;;;;;;11.27;6.05;;;27.70;94.90;;;;;;5086451;28;20031;-77
2022/06/23 09:08:47;;;;;;;12.10;6.97;;;28.10;94.90;;;;;;5039467;28;20040;-77
2022/06/23 09:11:26;;;;;;;14.52;6.32;;;28.00;94.90;;;;;;5082977;28;20085;-77
2022/06/23 09:14:16;;;;;;;14.95;6.78;;;27.80;94.20;;;;;;5086602;28;20038;-77
2022/06/23 09:17:05;;;;;;;13.23;5.78;;;28.00;94.40;;;;;;5087304;28;20393;-77
2022/06/23 09:19:45;;;;;;;12.98;6.22;;;27.70;94.40;;;;;;5086345;28;20106;-78
2022/06/23 09:22:42;;;;;;;12.73;5.65;;;27.90;94.10;;;;;;5081478;28;20039;-77
2022/06/23 09:25:07;;;;;;;13.45;6.95;;;28.20;94.20;;;;;;5086965;28;20028;-77
2022/06/23 09:27:43;;;;;;;9.52;5.45;;;27.90;93.60;;;;;;5087337;28;20035;-78
2022/06/23 09:30:28;;;;;;;17.40;5.95;;;27.70;94.10;;;;;;5087398;28;20036;-77
2022/06/23 09:33:06;;;;;;;8.90;5.00;;;28.10;93.70;;;;;;5086910;28;20032;-78
2022/06/23 09:35:45;;;;;;;14.52;5.13;;;28.10;93.80;;;;;;5087187;28;20036;-78
2022/06/23 09:38:20;;;;;;;12.35;6.07;;;28.20;93.10;;;;;;5086717;28;20359;-78
2022/06/23 09:41:10;;;;;;;8.88;5.55;;;28.20;93.30;;;;;;5086978;28;20068;-78
2022/06/23 09:44:13;;;;;;;8.95;5.75;;;28.20;92.70;;;;;;5087111;28;20036;-78
2022/06/23 09:47:07;;;;;;;15.75;5.32;;;28.30;92.90;;;;;;5086040;28;20111;-78
2022/06/23 09:49:42;;;;;;;9.52;4.72;;;28.60;93.40;;;;;;5083947;28;20121;-79
2022/06/23 09:52:29;;;;;;;21.23;5.63;;;29.30;92.40;;;;;;5087262;28;20038;-77
2022/06/23 09:55:07;;;;;;;13.40;5.78;;;29.10;92.20;;;;;;5087239;28;20027;-77
2022/06/23 09:57:35;;;;;;;9.68;4.88;;;29.30;92.40;;;;;;5086632;28;20028;-78
2022/06/23 10:00:21;;;;;;;9.32;5.22;;;29.40;93.10;;;;;;5087134;28;20125;-78
2022/06/23 10:03:03;;;;;;;10.93;5.03;;;29.10;92.40;;;;;;5090352;28;20048;-77
2022/06/23 10:05:58;;;;;;;8.75;5.30;;;29.50;92.50;;;;;;5090571;28;20032;-77
2022/06/23 10:08:49;;;;;;;10.95;5.38;;;29.70;92.30;;;;;;5087358;28;20135;-78
2022/06/23 10:11:47;;;;;;;12.05;6.13;;;29.50;92.70;;;;;;5089673;28;20024;-79
2022/06/23 10:14:43;;;;;;;10.90;5.13;;;29.90;92.60;;;;;;5106165;28;20032;-78
2022/06/23 10:17:20;;;;;;;16.95;5.53;;;29.80;92.90;;;;;;5090802;28;20024;-77
2022/06/23 10:20:11;;;;;;;11.32;4.80;;;30.00;91.80;;;;;;5091262;28;20558;-77
2022/06/23 10:22:42;;;;;;;11.63;6.05;;;30.00;92.10;;;;;;5090688;28;20096;-78
2022/06/23 10:25:31;;;;;;;10.63;4.90;;;29.80;92.50;;;;;;5088426;28;20027;-76
2022/06/23 10:28:20;;;;;;;11.75;4.75;;;30.10;92.60;;;;;;5086563;28;20084;-77
2022/06/23 10:31:07;;;;;;;12.27;4.63;;;29.80;91.40;;;;;;5086122;28;20042;-78
2022/06/23 10:33:47;;;;;;;13.70;5.57;;;29.80;90.90;;;;;;5087054;28;20051;-78
2022/06/23 10:36:41;;;;;;;9.25;4.45;;;29.70;90.60;;;;;;5084253;28;20063;-77
2022/06/23 10:39:36;;;;;;;14.75;5.38;;;29.80;91.30;;;;;;5085490;28;20036;-79
2022/06/23 10:42:17;;;;;;;10.75;4.72;;;29.90;91.20;;;;;;5084702;28;20039;-77
2022/06/23 10:44:43;;;;;;;10.90;4.78;;;30.30;91.00;;;;;;5085664;28;20055;-76
2022/06/23 10:47:33;;;;;;;14.15;4.72;;;30.50;91.60;;;;;;5085648;28;20454;-76
2022/06/23 10:50:02;;;;;;;14.32;5.43;;;30.20;90.60;;;;;;5084082;28;20759;-76
2022/06/23 10:52:47;;;;;;;14.93;5.05;;;30.50;90.90;;;;;;5085883;28;22081;-77
2022/06/23 10:55:45;;;;;;;8.63;4.68;;;30.70;91.60;;;;;;5085827;28;20358;-77
2022/06/23 10:58:13;;;;;;;14.23;5.10;;;30.70;90.50;;;;;;5085188;28;20032;-77
2022/06/23 11:00:58;;;;;;;12.60;5.68;;;31.10;90.90;;;;;;5085366;28;20028;-76
2022/06/23 11:03:26;;;;;;;10.40;4.97;;;31.20;90.90;;;;;;5085890;28;20569;-77
2022/06/23 11:05:58;;;;;;;12.13;4.80;;;31.00;90.10;;;;;;5085889;28;20036;-76
2022/06/23 11:09:01;;;;;;;10.18;4.70;;;31.20;90.50;;;;;;5085671;28;20555;-75
2022/06/23 11:11:36;;;;;;;19.40;5.10;;;31.00;90.40;;;;;;5088866;28;20111;-76
2022/06/23 11:14:20;;;;;;;12.75;4.18;;;30.90;89.90;;;;;;5088415;28;20389;-76
2022/06/23 11:16:51;;;;;;;10.80;3.90;;;31.70;90.20;;;;;;5089109;28;20498;-75
2022/06/23 11:19:22;;;;;;;14.15;4.40;;;32.00;89.70;;;;;;5088575;28;20043;-76
2022/06/23 11:22:10;;;;;;;11.60;4.47;;;32.00;88.10;;;;;;5086204;28;20093;-76
2022/06/23 11:25:18;;;;;;;14.75;5.53;;;31.90;88.20;;;;;;5087929;28;20064;-77
2022/06/23 11:28:04;;;;;;;11.95;4.32;;;31.80;88.50;;;;;;5086780;28;20028;-75
2022/06/23 11:30:54;;;;;;;12.90;4.95;;;31.90;86.80;;;;;;5085483;28;20038;-75
2022/06/23 11:33:22;;;;;;;9.27;4.85;;;31.80;87.70;;;;;;5087435;28;20056;-75
2022/06/23 11:36:16;;;;;;;17.13;5.35;;;31.90;88.60;;;;;;5088287;28;20104;-76
2022/06/23 11:39:01;;;;;;;10.30;4.50;;;32.10;87.60;;;;;;5088547;28;20472;-76
2022/06/23 11:41:57;;;;;;;17.58;4.97;;;32.00;85.60;;;;;;5087247;28;20024;-76
2022/06/23 11:45:05;;;;;;;15.80;5.63;;;31.70;84.70;;;;;;5086220;28;20117;-75
2022/06/23 11:47:50;;;;;;;16.65;4.82;;;32.00;87.80;;;;;;5001558;28;20073;-76
2022/06/23 11:50:38;;;;;;;16.67;4.82;;;32.10;86.40;;;;;;5082503;28;20490;-75
2022/06/23 11:53:20;;;;;;;14.30;4.75;;;32.20;86.40;;;;;;5087554;28;20032;-75
2022/06/23 11:55:55;;;;;;;20.13;5.35;;;32.40;85.40;;;;;;5087728;28;20039;-75
2022/06/23 11:58:52;;;;;;;14.00;5.75;;;32.70;84.70;;;;;;5087526;28;20107;-76
2022/06/23 12:01:23;;;;;;;14.55;5.32;;;32.80;85.00;;;;;;5091639;28;20047;-75
2022/06/23 12:04:27;;;;;;;10.75;4.13;;;32.80;84.50;;;;;;5090378;28;20032;-75
2022/06/23 12:07:32;;;;;;;16.15;4.78;;;32.80;84.10;;;;;;5087593;28;20034;-76
2022/06/23 12:10:12;;;;;;;21.60;4.50;;;32.90;84.40;;;;;;5075528;28;20051;-75
2022/06/23 12:12:40;;;;;;;16.35;5.60;;;33.20;82.20;;;;;;5087913;28;20127;-75
2022/06/23 12:15:07;;;;;;;20.75;5.95;;;33.00;81.70;;;;;;5088169;28;20032;-75
2022/06/23 12:17:40;;;;;;;15.40;4.75;;;33.10;81.40;;;;;;5086514;28;20558;-75
2022/06/23 12:20:23;;;;;;;21.13;4.78;;;33.10;82.50;;;;;;5084710;28;20683;-75
2022/06/23 12:23:07;;;;;;;21.33;5.57;;;33.00;81.70;;;;;;5085812;28;20036;-75
2022/06/23 12:25:38;;;;;;;;;;;33.10;81.20;;;;;;5086315;28;20028;-75
2022/06/23 12:28:25;;;;;;;18.15;5.47;;;33.10;81.30;;;;;;5086114;28;19995;-75
2022/06/23 12:30:57;;;;;;;22.15;6.68;;;33.10;81.30;;;;;;5083109;28;20036;-75
2022/06/23 12:33:39;;;;;;;28.35;6.40;;;33.20;80.30;;;;;;5087718;28;20032;-75
2022/06/23 12:36:12;;;;;;;14.37;4.93;;;33.50;80.70;;;;;;5087212;28;20063;-75
2022/06/23 12:38:54;;;;;;;17.35;4.38;;;33.50;80.00;;;;;;5088139;28;20877;-76
2022/06/23 12:41:25;;;;;;;18.00;5.32;;;33.40;79.80;;;;;;5090854;28;20031;-76
2022/06/23 12:44:13;;;;;;;24.20;6.38;;;33.30;80.00;;;;;;5095590;28;20043;-76
2022/06/23 12:46:54;;;;;;;18.88;4.93;;;33.40;80.20;;;;;;5087967;28;20109;-75
2022/06/23 12:49:32;;;;;;;19.85;5.53;;;33.50;79.80;;;;;;5088004;28;20470;-75
2022/06/23 12:52:13;;;;;;;19.35;5.97;;;33.40;79.70;;;;;;5086849;28;20028;-76
2022/06/23 12:54:58;;;;;;;24.02;6.63;;;33.40;80.10;;;;;;5087473;28;20631;-76
2022/06/23 12:57:50;;;;;;;21.08;5.75;;;33.50;79.20;;;;;;5087703;28;20028;-75
2022/06/23 13:00:26;;;;;;;25.02;5.90;;;33.50;79.80;;;;;;5087723;28;20032;-75
2022/06/23 13:02:56;;;;;;;27.65;5.05;;;33.50;79.00;;;;;;5086789;28;20744;-76
2022/06/23 13:05:35;;;;;;;18.33;4.93;;;33.70;79.20;;;;;;5086557;28;20028;-75
2022/06/23 13:08:20;;;;;;;21.15;5.97;;;33.90;81.30;;;;;;5083183;28;20028;-76
2022/06/23 13:10:55;;;;;;;23.48;5.55;;;33.80;79.40;;;;;;5084035;28;20024;-75
2022/06/23 13:13:24;;;;;;;14.10;4.47;;;33.70;80.50;;;;;;5083974;28;20032;-75
2022/06/23 13:15:59;;;;;;;23.45;5.45;;;33.70;77.40;;;;;;5087151;28;20067;-75
2022/06/23 13:18:40;;;;;;;13.95;4.35;;;33.50;77.20;;;;;;5086576;28;20027;-75
2022/06/23 13:21:22;;;;;;;26.95;5.80;;;32.70;77.60;;;;;;5086284;28;20032;-76
2022/06/23 13:24:01;;;;;;;29.08;6.28;;;32.10;79.00;;;;;;5086985;28;20059;-75
2022/06/23 13:26:27;;;;;;;23.98;5.55;;;31.80;79.80;;;;;;5085583;28;20024;-75
2022/06/23 13:29:06;;;;;;;20.88;6.97;;;31.90;81.50;;;;;;5086958;28;20035;-75
2022/06/23 13:32:04;;;;;;;25.45;6.45;;;32.60;81.60;;;;;;5087348;28;20539;-75
2022/06/23 13:34:35;;;;;;;22.25;7.28;;;33.30;80.90;;;;;;5071925;28;20071;-75
2022/06/23 13:37:04;;;;;;;24.30;6.18;;;33.00;79.90;;;;;;5091165;28;20035;-76
2022/06/23 13:39:36;;;;;;;25.92;6.55;;;32.80;80.30;;;;;;5090855;28;20028;-75
2022/06/23 13:42:16;;;;;;;26.30;6.68;;;32.20;80.10;;;;;;5089467;28;20053;-75
2022/06/23 13:44:56;;;;;;;14.18;5.32;;;32.10;80.70;;;;;;5090552;28;20036;-76
2022/06/23 13:47:51;;;;;;;22.45;6.20;;;32.50;80.60;;;;;;5073337;28;20840;-76